Архив погоды в Александровск-Сахалинском

Метеограмма Александровск-Сахалинский
Пятница, 25 Мая
Время местн. Темп Ветер Видим Явления Облачность нижн/средн/верх Атм. давл. Влжн Точка росы ВНГО R Сост. почвы Tg s
Напр Скр Прв ур.ст ур.м изм
04:00 +1.9° В,Ю-В 2 3 20 км - облачно с прояснениями 751 754 +0.3 94% +1.1° - - - - -
01:00 +3° В,Ю-В 3 4 20 км - облачно с прояснениями 751 754 -0.2 94% +2.2° - - - - -
Четверг, 24 Мая
Время местн. Темп Ветер Видим Явления Облачность нижн/средн/верх Атм. давл. Влжн Точка росы ВНГО R Сост. почвы Tg s
Напр Скр Прв ур.ст ур.м изм
22:00 +6.2° В 2 3 20 км - переменная облачность 751 754 +1.1 83% +3.6° 1 км - - - -
19:00 +8.1° С-З 1 7 20 км - преимущественно облачно 750 753 +1.4 79% +4.7° 1 км 1 - - -
16:00 +8.2° С 4 7 20 км небо без изменений {ливневые осадки} преимущественно облачно 749 751 +0.2 89% +6.5° 300 м - - - -
13:00 +7.1° С 2 3 10 км небо без изменений {ливневые осадки} облачно 748 751 +0.7 93% +6.1° 300 м - - - -
10:00 +8.9° Ю-З 1 3 20 км ливневый дождь облачно 748 751 +0.5 81% +5.9° 1 км - - - -
07:00 +10.4° В,Ю-В 2 5 20 км слабый ливневый дождь облачно 747 750 -0.1 66% +4.4° 1 км 0 Влажная (без луж) - -
04:00 +12.5° Ю-В 4 9 20 км - облачно 747 750 -0.8 53% +3.2° 1 км - - - -
01:00 +10.6° Ю,Ю-В 1 3 20 км - облачно 748 751 -1.2 66% +4.6° 1 км - - - -
Среда, 23 Мая
Время местн. Темп Ветер Видим Явления Облачность нижн/средн/верх Атм. давл. Влжн Точка росы ВНГО R Сост. почвы Tg s
Напр Скр Прв ур.ст ур.м изм
22:00 +7.5° В,Ю-В 2 5 20 км - облачно 749 752 +0.7 87% +5.5° более 2.5 км - - - -
19:00 +10.2° С 2 5 20 км - преимущественно облачно 749 752 -0.2 75% +6° 1 км 0 - - -
16:00 +10.4° С 3 9 более 50 км - облачно с прояснениями 749 752 -1.1 70% +5.2° 1 км - - - -
13:00 +13.9° З,Ю-З 4 7 50 км - переменная облачность 750 753 -1.1 57% +5.6° более 2.5 км - - - -
10:00 +10.2° С-З 2 3 20 км - незначительная облачность 751 754 +0.3 73% +5.5° более 2.5 км - - - -
07:00 +9.4° В,Ю-В 2 2 20 км - незначительная облачность 751 754 +0.5 79% +6° более 2.5 км 0 Влажная (без луж) - -
04:00 +5.8° В,Ю-В 2 3 20 км - переменная облачность 750 753 +0.2 93% +4.7° более 2.5 км - - - -
01:00 +7.8° С,С-В 1 1 20 км - облачно с прояснениями 750 753 +0.1 85% +5.4° 1 км - - - -
Вторник, 22 Мая
Время местн. Темп Ветер Видим Явления Облачность нижн/средн/верх Атм. давл. Влжн Точка росы ВНГО R Сост. почвы Tg s
Напр Скр Прв ур.ст ур.м изм
22:00 +9.3° С,С-В 2 6 20 км - облачно с прояснениями 750 753 0 77% +5.5° 1 км - - - -
19:00 +16.3° Ю,Ю-З 2 4 20 км - переменная облачность 750 753 -0.3 54% +7.1° 1 км 0 - - -
16:00 +16.4° Ю-З 6 11 20 км - переменная облачность 750 753 -2 50% +6.1° более 2.5 км - - - -
13:00 +17.1° Ю,Ю-З 6 9 20 км - облачно с прояснениями 752 755 -2.5 47% +5.7° 1 км - - - -
10:00 +13.3° Ю 7 12 20 км - преимущественно облачно 755 758 -2 55% +4.4° 1 км - - - -
07:00 +7.4° Ю 3 4 20 км - облачно 757 760 -1.6 81% +4.4° 1 км 0 Влажная (без луж) - -
04:00 -0.1° В 2 3 20 км - переменная облачность 758 761 -0.6 96% -0.6° более 2.5 км - - - -
01:00 +2.5° Ю-В 3 5 20 км - ясно 759 762 -0.7 94% +1.6° более 2.5 км - - - -